sensor_id;sensor_type;location;lat;lon;timestamp;temperature;humidity
9820;DHT22;4949;48.482;9.206;2022-12-05T00:02:22;4.00;79.40
9820;DHT22;4949;48.482;9.206;2022-12-05T00:07:23;4.00;79.50
9820;DHT22;4949;48.482;9.206;2022-12-05T00:12:23;3.90;79.30
9820;DHT22;4949;48.482;9.206;2022-12-05T00:17:24;3.80;79.40
9820;DHT22;4949;48.482;9.206;2022-12-05T00:22:25;3.80;79.00
9820;DHT22;4949;48.482;9.206;2022-12-05T00:27:26;3.90;78.90
9820;DHT22;4949;48.482;9.206;2022-12-05T00:32:29;3.80;78.60
9820;DHT22;4949;48.482;9.206;2022-12-05T00:37:30;3.80;78.70
9820;DHT22;4949;48.482;9.206;2022-12-05T00:42:31;3.90;78.00
9820;DHT22;4949;48.482;9.206;2022-12-05T00:47:35;3.90;77.90
9820;DHT22;4949;48.482;9.206;2022-12-05T00:52:36;3.80;78.70
9820;DHT22;4949;48.482;9.206;2022-12-05T00:57:36;3.80;79.00
9820;DHT22;4949;48.482;9.206;2022-12-05T01:02:42;3.80;79.30
9820;DHT22;4949;48.482;9.206;2022-12-05T01:07:43;3.80;79.50
9820;DHT22;4949;48.482;9.206;2022-12-05T01:12:49;3.90;79.60
9820;DHT22;4949;48.482;9.206;2022-12-05T01:17:56;3.80;79.80
9820;DHT22;4949;48.482;9.206;2022-12-05T01:23:01;3.80;80.30
9820;DHT22;4949;48.482;9.206;2022-12-05T01:28:02;3.90;80.40
9820;DHT22;4949;48.482;9.206;2022-12-05T01:33:03;3.80;81.10
9820;DHT22;4949;48.482;9.206;2022-12-05T01:38:04;3.80;81.50
9820;DHT22;4949;48.482;9.206;2022-12-05T01:43:13;3.80;82.10
9820;DHT22;4949;48.482;9.206;2022-12-05T01:48:29;3.90;82.30
9820;DHT22;4949;48.482;9.206;2022-12-05T01:53:33;3.90;82.30
9820;DHT22;4949;48.482;9.206;2022-12-05T01:58:36;3.80;82.20
9820;DHT22;4949;48.482;9.206;2022-12-05T02:03:39;3.80;82.50
9820;DHT22;4949;48.482;9.206;2022-12-05T02:08:42;3.80;82.70
9820;DHT22;4949;48.482;9.206;2022-12-05T02:19:51;4.00;81.50
9820;DHT22;4949;48.482;9.206;2022-12-05T02:46:54;4.10;82.20
9820;DHT22;4949;48.482;9.206;2022-12-05T02:51:58;4.10;82.10
9820;DHT22;4949;48.482;9.206;2022-12-05T02:57:00;4.10;82.10
9820;DHT22;4949;48.482;9.206;2022-12-05T03:02:01;4.20;82.00
9820;DHT22;4949;48.482;9.206;2022-12-05T03:07:11;4.20;81.90
9820;DHT22;4949;48.482;9.206;2022-12-05T03:12:19;4.30;81.40
9820;DHT22;4949;48.482;9.206;2022-12-05T03:17:25;4.30;80.90
9820;DHT22;4949;48.482;9.206;2022-12-05T03:22:41;4.30;80.90
9820;DHT22;4949;48.482;9.206;2022-12-05T03:27:49;4.20;81.70
9820;DHT22;4949;48.482;9.206;2022-12-05T03:33:13;4.30;81.70
9820;DHT22;4949;48.482;9.206;2022-12-05T03:38:26;4.30;81.60
9820;DHT22;4949;48.482;9.206;2022-12-05T03:49:24;4.20;82.00
9820;DHT22;4949;48.482;9.206;2022-12-05T03:54:58;4.10;82.30
9820;DHT22;4949;48.482;9.206;2022-12-05T04:00:05;4.00;82.40
9820;DHT22;4949;48.482;9.206;2022-12-05T04:05:20;4.00;82.40
9820;DHT22;4949;48.482;9.206;2022-12-05T04:10:29;4.00;82.50
9820;DHT22;4949;48.482;9.206;2022-12-05T04:15:31;4.20;82.70
9820;DHT22;4949;48.482;9.206;2022-12-05T04:20:54;4.00;82.30
9820;DHT22;4949;48.482;9.206;2022-12-05T04:26:28;3.90;82.40
9820;DHT22;4949;48.482;9.206;2022-12-05T04:31:39;3.80;82.70
9820;DHT22;4949;48.482;9.206;2022-12-05T04:36:57;3.80;82.70
9820;DHT22;4949;48.482;9.206;2022-12-05T04:42:18;3.70;82.70
9820;DHT22;4949;48.482;9.206;2022-12-05T04:47:24;3.70;83.20
9820;DHT22;4949;48.482;9.206;2022-12-05T04:52:29;3.60;82.90
9820;DHT22;4949;48.482;9.206;2022-12-05T04:58:11;3.80;82.60
9820;DHT22;4949;48.482;9.206;2022-12-05T05:08:57;3.40;83.20
9820;DHT22;4949;48.482;9.206;2022-12-05T05:13:58;3.50;82.60
9820;DHT22;4949;48.482;9.206;2022-12-05T05:19:04;3.60;82.40
9820;DHT22;4949;48.482;9.206;2022-12-05T05:24:06;3.60;82.40
9820;DHT22;4949;48.482;9.206;2022-12-05T05:29:10;3.50;82.70
9820;DHT22;4949;48.482;9.206;2022-12-05T05:34:12;3.60;82.40
9820;DHT22;4949;48.482;9.206;2022-12-05T05:39:15;3.70;82.50
9820;DHT22;4949;48.482;9.206;2022-12-05T05:44:16;3.70;82.30
9820;DHT22;4949;48.482;9.206;2022-12-05T05:49:16;3.90;82.20
9820;DHT22;4949;48.482;9.206;2022-12-05T05:54:17;3.90;82.10
9820;DHT22;4949;48.482;9.206;2022-12-05T05:59:18;4.00;81.90
9820;DHT22;4949;48.482;9.206;2022-12-05T06:04:19;3.80;81.90
9820;DHT22;4949;48.482;9.206;2022-12-05T06:09:19;3.80;82.20
9820;DHT22;4949;48.482;9.206;2022-12-05T06:14:23;3.70;82.40
9820;DHT22;4949;48.482;9.206;2022-12-05T06:19:23;3.80;82.50
9820;DHT22;4949;48.482;9.206;2022-12-05T06:24:26;3.80;82.70
9820;DHT22;4949;48.482;9.206;2022-12-05T06:29:27;3.80;82.70
9820;DHT22;4949;48.482;9.206;2022-12-05T06:34:30;3.80;82.80
9820;DHT22;4949;48.482;9.206;2022-12-05T06:39:34;3.70;82.90
9820;DHT22;4949;48.482;9.206;2022-12-05T06:44:35;3.70;83.10
9820;DHT22;4949;48.482;9.206;2022-12-05T06:49:38;3.80;82.70
9820;DHT22;4949;48.482;9.206;2022-12-05T06:54:39;3.80;82.20
9820;DHT22;4949;48.482;9.206;2022-12-05T06:59:40;3.80;82.00
9820;DHT22;4949;48.482;9.206;2022-12-05T07:04:40;3.80;82.40
9820;DHT22;4949;48.482;9.206;2022-12-05T07:09:41;3.90;83.00
9820;DHT22;4949;48.482;9.206;2022-12-05T07:14:47;3.90;82.60
9820;DHT22;4949;48.482;9.206;2022-12-05T07:19:50;4.00;81.90
9820;DHT22;4949;48.482;9.206;2022-12-05T07:24:51;4.20;82.50
9820;DHT22;4949;48.482;9.206;2022-12-05T07:29:55;4.10;82.80
9820;DHT22;4949;48.482;9.206;2022-12-05T07:34:56;4.00;82.70
9820;DHT22;4949;48.482;9.206;2022-12-05T07:39:56;4.10;82.30
9820;DHT22;4949;48.482;9.206;2022-12-05T07:44:58;4.20;82.40
9820;DHT22;4949;48.482;9.206;2022-12-05T07:49:59;4.20;82.40
9820;DHT22;4949;48.482;9.206;2022-12-05T07:55:02;4.20;82.30
9820;DHT22;4949;48.482;9.206;2022-12-05T08:00:03;4.20;82.20
9820;DHT22;4949;48.482;9.206;2022-12-05T08:05:05;4.30;82.20
9820;DHT22;4949;48.482;9.206;2022-12-05T08:10:07;4.30;82.10
9820;DHT22;4949;48.482;9.206;2022-12-05T08:15:08;4.40;82.10
9820;DHT22;4949;48.482;9.206;2022-12-05T08:20:09;4.50;82.20
9820;DHT22;4949;48.482;9.206;2022-12-05T08:25:11;4.60;81.80
9820;DHT22;4949;48.482;9.206;2022-12-05T08:30:12;4.70;81.90
9820;DHT22;4949;48.482;9.206;2022-12-05T08:35:13;4.80;81.10
9820;DHT22;4949;48.482;9.206;2022-12-05T08:40:14;4.90;81.10
9820;DHT22;4949;48.482;9.206;2022-12-05T08:45:15;5.20;81.60
9820;DHT22;4949;48.482;9.206;2022-12-05T08:50:18;5.00;80.70
9820;DHT22;4949;48.482;9.206;2022-12-05T08:55:18;5.00;80.80
9820;DHT22;4949;48.482;9.206;2022-12-05T09:00:19;5.10;80.80
9820;DHT22;4949;48.482;9.206;2022-12-05T09:05:23;5.10;80.80
9820;DHT22;4949;48.482;9.206;2022-12-05T09:10:27;5.20;80.70
9820;DHT22;4949;48.482;9.206;2022-12-05T09:15:30;5.30;80.50
9820;DHT22;4949;48.482;9.206;2022-12-05T09:20:31;5.30;81.20
9820;DHT22;4949;48.482;9.206;2022-12-05T09:25:31;5.20;81.50
9820;DHT22;4949;48.482;9.206;2022-12-05T09:30:32;5.30;81.20
9820;DHT22;4949;48.482;9.206;2022-12-05T09:35:33;5.30;80.70
9820;DHT22;4949;48.482;9.206;2022-12-05T09:40:43;5.40;80.20
9820;DHT22;4949;48.482;9.206;2022-12-05T09:45:56;5.40;80.20
9820;DHT22;4949;48.482;9.206;2022-12-05T09:51:02;5.40;79.50
9820;DHT22;4949;48.482;9.206;2022-12-05T09:56:22;5.50;79.80
9820;DHT22;4949;48.482;9.206;2022-12-05T10:02:12;5.60;79.40
9820;DHT22;4949;48.482;9.206;2022-12-05T10:07:32;5.60;79.60
9820;DHT22;4949;48.482;9.206;2022-12-05T10:28:36;5.80;80.00
9820;DHT22;4949;48.482;9.206;2022-12-05T10:33:48;5.80;79.90
9820;DHT22;4949;48.482;9.206;2022-12-05T10:38:53;5.90;80.60
9820;DHT22;4949;48.482;9.206;2022-12-05T10:43:57;6.00;80.80
9820;DHT22;4949;48.482;9.206;2022-12-05T10:48:59;6.00;80.80
9820;DHT22;4949;48.482;9.206;2022-12-05T10:54:00;6.10;80.80
9820;DHT22;4949;48.482;9.206;2022-12-05T10:59:02;6.20;80.50
9820;DHT22;4949;48.482;9.206;2022-12-05T11:04:16;6.30;79.30
9820;DHT22;4949;48.482;9.206;2022-12-05T11:09:31;6.20;77.80
9820;DHT22;4949;48.482;9.206;2022-12-05T11:14:34;6.40;78.50
9820;DHT22;4949;48.482;9.206;2022-12-05T11:19:37;6.50;77.30
9820;DHT22;4949;48.482;9.206;2022-12-05T11:24:38;6.60;77.00
9820;DHT22;4949;48.482;9.206;2022-12-05T11:29:42;6.60;77.30
9820;DHT22;4949;48.482;9.206;2022-12-05T11:34:51;6.70;76.80
9820;DHT22;4949;48.482;9.206;2022-12-05T11:39:53;6.80;77.00
9820;DHT22;4949;48.482;9.206;2022-12-05T11:51:01;7.10;75.90
9820;DHT22;4949;48.482;9.206;2022-12-05T12:18:02;7.70;74.00
9820;DHT22;4949;48.482;9.206;2022-12-05T12:28:59;7.70;70.90
9820;DHT22;4949;48.482;9.206;2022-12-05T12:45:14;7.70;69.80
9820;DHT22;4949;48.482;9.206;2022-12-05T12:50:37;7.70;68.90
9820;DHT22;4949;48.482;9.206;2022-12-05T13:01:32;7.90;67.80
9820;DHT22;4949;48.482;9.206;2022-12-05T13:06:48;7.90;66.60
9820;DHT22;4949;48.482;9.206;2022-12-05T13:11:51;8.00;66.10
9820;DHT22;4949;48.482;9.206;2022-12-05T13:16:53;8.40;63.40
9820;DHT22;4949;48.482;9.206;2022-12-05T13:21:57;8.20;58.80
9820;DHT22;4949;48.482;9.206;2022-12-05T13:27:04;8.20;60.00
9820;DHT22;4949;48.482;9.206;2022-12-05T13:37:30;8.00;60.40
9820;DHT22;4949;48.482;9.206;2022-12-05T13:42:59;8.10;59.80
9820;DHT22;4949;48.482;9.206;2022-12-05T13:48:22;7.90;60.00
9820;DHT22;4949;48.482;9.206;2022-12-05T13:53:41;8.20;59.30
9820;DHT22;4949;48.482;9.206;2022-12-05T14:08:55;8.30;58.50
9820;DHT22;4949;48.482;9.206;2022-12-05T14:13:55;8.30;58.70
9820;DHT22;4949;48.482;9.206;2022-12-05T14:24:23;8.30;58.00
9820;DHT22;4949;48.482;9.206;2022-12-05T14:30:28;8.20;58.70
9820;DHT22;4949;48.482;9.206;2022-12-05T14:35:44;8.00;62.00
9820;DHT22;4949;48.482;9.206;2022-12-05T14:40:47;7.70;66.90
9820;DHT22;4949;48.482;9.206;2022-12-05T14:50:53;7.60;67.50
9820;DHT22;4949;48.482;9.206;2022-12-05T15:06:15;7.20;67.30
9820;DHT22;4949;48.482;9.206;2022-12-05T15:11:24;7.20;66.30
9820;DHT22;4949;48.482;9.206;2022-12-05T15:16:30;7.40;66.20
9820;DHT22;4949;48.482;9.206;2022-12-05T15:21:46;7.30;65.80
9820;DHT22;4949;48.482;9.206;2022-12-05T15:26:53;7.20;65.70
9820;DHT22;4949;48.482;9.206;2022-12-05T15:32:03;7.10;65.80
9820;DHT22;4949;48.482;9.206;2022-12-05T15:37:16;7.10;66.20
9820;DHT22;4949;48.482;9.206;2022-12-05T15:42:22;7.00;66.40
9820;DHT22;4949;48.482;9.206;2022-12-05T15:47:27;6.90;67.00
9820;DHT22;4949;48.482;9.206;2022-12-05T15:52:59;7.00;67.30
9820;DHT22;4949;48.482;9.206;2022-12-05T16:03:44;7.00;67.20
9820;DHT22;4949;48.482;9.206;2022-12-05T16:08:58;7.00;66.90
9820;DHT22;4949;48.482;9.206;2022-12-05T16:14:03;7.20;65.90
9820;DHT22;4949;48.482;9.206;2022-12-05T16:19:20;7.20;65.60
9820;DHT22;4949;48.482;9.206;2022-12-05T16:24:27;7.20;65.80
9820;DHT22;4949;48.482;9.206;2022-12-05T16:29:34;7.20;65.90
9820;DHT22;4949;48.482;9.206;2022-12-05T16:34:35;7.40;66.40
9820;DHT22;4949;48.482;9.206;2022-12-05T16:39:43;7.20;65.90
9820;DHT22;4949;48.482;9.206;2022-12-05T16:50:20;7.00;66.40
9820;DHT22;4949;48.482;9.206;2022-12-05T16:55:31;7.10;65.90
9820;DHT22;4949;48.482;9.206;2022-12-05T17:00:38;7.10;65.70
9820;DHT22;4949;48.482;9.206;2022-12-05T17:05:39;7.10;65.60
9820;DHT22;4949;48.482;9.206;2022-12-05T17:10:41;7.00;65.90
9820;DHT22;4949;48.482;9.206;2022-12-05T17:15:42;6.80;67.20
9820;DHT22;4949;48.482;9.206;2022-12-05T17:20:51;6.80;67.90
9820;DHT22;4949;48.482;9.206;2022-12-05T17:25:58;6.70;68.00
9820;DHT22;4949;48.482;9.206;2022-12-05T17:30:58;6.70;68.30
9820;DHT22;4949;48.482;9.206;2022-12-05T17:36:02;6.70;68.50
9820;DHT22;4949;48.482;9.206;2022-12-05T17:41:04;6.60;68.80
9820;DHT22;4949;48.482;9.206;2022-12-05T17:46:10;6.60;69.20
9820;DHT22;4949;48.482;9.206;2022-12-05T17:51:15;6.60;69.10
9820;DHT22;4949;48.482;9.206;2022-12-05T17:56:16;6.60;70.40
9820;DHT22;4949;48.482;9.206;2022-12-05T18:01:19;6.60;70.00
9820;DHT22;4949;48.482;9.206;2022-12-05T18:06:19;6.50;70.30
9820;DHT22;4949;48.482;9.206;2022-12-05T18:11:20;6.50;70.60
9820;DHT22;4949;48.482;9.206;2022-12-05T18:16:23;6.40;71.00
9820;DHT22;4949;48.482;9.206;2022-12-05T18:21:27;6.40;71.40
9820;DHT22;4949;48.482;9.206;2022-12-05T18:26:28;6.40;71.80
9820;DHT22;4949;48.482;9.206;2022-12-05T18:31:29;6.30;72.40
9820;DHT22;4949;48.482;9.206;2022-12-05T18:36:33;6.40;71.30
9820;DHT22;4949;48.482;9.206;2022-12-05T18:41:36;6.20;71.50
9820;DHT22;4949;48.482;9.206;2022-12-05T18:46:37;6.20;71.40
9820;DHT22;4949;48.482;9.206;2022-12-05T18:51:38;6.10;71.20
9820;DHT22;4949;48.482;9.206;2022-12-05T18:56:39;6.20;70.80
9820;DHT22;4949;48.482;9.206;2022-12-05T19:01:45;6.10;71.70
9820;DHT22;4949;48.482;9.206;2022-12-05T19:06:51;5.90;71.70
9820;DHT22;4949;48.482;9.206;2022-12-05T19:11:55;5.90;72.30
9820;DHT22;4949;48.482;9.206;2022-12-05T19:16:58;5.90;71.80
9820;DHT22;4949;48.482;9.206;2022-12-05T19:21:58;6.00;71.70
9820;DHT22;4949;48.482;9.206;2022-12-05T19:27:01;6.00;71.60
9820;DHT22;4949;48.482;9.206;2022-12-05T19:32:02;6.20;71.70
9820;DHT22;4949;48.482;9.206;2022-12-05T19:37:03;6.00;71.60
9820;DHT22;4949;48.482;9.206;2022-12-05T19:42:04;6.00;71.80
9820;DHT22;4949;48.482;9.206;2022-12-05T19:47:04;6.00;71.30
9820;DHT22;4949;48.482;9.206;2022-12-05T19:52:08;5.90;71.50
9820;DHT22;4949;48.482;9.206;2022-12-05T19:57:19;6.00;71.70
9820;DHT22;4949;48.482;9.206;2022-12-05T20:02:22;6.00;71.80
9820;DHT22;4949;48.482;9.206;2022-12-05T20:07:25;6.10;72.20
9820;DHT22;4949;48.482;9.206;2022-12-05T20:12:29;5.90;72.50
9820;DHT22;4949;48.482;9.206;2022-12-05T20:17:29;5.90;73.00
9820;DHT22;4949;48.482;9.206;2022-12-05T20:22:30;5.90;73.80
9820;DHT22;4949;48.482;9.206;2022-12-05T20:27:31;5.80;74.80
9820;DHT22;4949;48.482;9.206;2022-12-05T20:32:33;5.80;74.80
9820;DHT22;4949;48.482;9.206;2022-12-05T20:37:36;5.80;74.80
9820;DHT22;4949;48.482;9.206;2022-12-05T20:42:37;5.80;74.70
9820;DHT22;4949;48.482;9.206;2022-12-05T20:47:42;5.90;74.60
9820;DHT22;4949;48.482;9.206;2022-12-05T20:52:46;5.80;74.90
9820;DHT22;4949;48.482;9.206;2022-12-05T20:57:47;5.80;75.10
9820;DHT22;4949;48.482;9.206;2022-12-05T21:02:48;5.80;74.80
9820;DHT22;4949;48.482;9.206;2022-12-05T21:07:51;5.70;74.60
9820;DHT22;4949;48.482;9.206;2022-12-05T21:12:54;5.70;74.50
9820;DHT22;4949;48.482;9.206;2022-12-05T21:17:55;5.80;74.60
9820;DHT22;4949;48.482;9.206;2022-12-05T21:22:58;5.90;74.40
9820;DHT22;4949;48.482;9.206;2022-12-05T21:28:01;5.90;74.10
9820;DHT22;4949;48.482;9.206;2022-12-05T21:33:02;6.00;73.20
9820;DHT22;4949;48.482;9.206;2022-12-05T21:38:05;5.80;73.10
9820;DHT22;4949;48.482;9.206;2022-12-05T21:43:11;5.80;73.80
9820;DHT22;4949;48.482;9.206;2022-12-05T21:48:12;5.70;73.60
9820;DHT22;4949;48.482;9.206;2022-12-05T21:53:13;5.70;73.60
9820;DHT22;4949;48.482;9.206;2022-12-05T21:58:14;5.80;73.00
9820;DHT22;4949;48.482;9.206;2022-12-05T22:03:15;5.80;73.00
9820;DHT22;4949;48.482;9.206;2022-12-05T22:08:16;5.80;73.20
9820;DHT22;4949;48.482;9.206;2022-12-05T22:13:21;5.80;72.70
9820;DHT22;4949;48.482;9.206;2022-12-05T22:18:22;5.90;73.70
9820;DHT22;4949;48.482;9.206;2022-12-05T22:23:26;5.60;73.90
9820;DHT22;4949;48.482;9.206;2022-12-05T22:28:28;5.60;74.00
9820;DHT22;4949;48.482;9.206;2022-12-05T22:33:29;5.60;73.80
9820;DHT22;4949;48.482;9.206;2022-12-05T22:38:33;5.60;74.00
9820;DHT22;4949;48.482;9.206;2022-12-05T22:43:36;5.70;73.60
9820;DHT22;4949;48.482;9.206;2022-12-05T22:48:37;5.80;73.20
9820;DHT22;4949;48.482;9.206;2022-12-05T22:53:41;5.60;73.80
9820;DHT22;4949;48.482;9.206;2022-12-05T22:58:42;5.70;73.50
9820;DHT22;4949;48.482;9.206;2022-12-05T23:03:48;5.70;73.50
9820;DHT22;4949;48.482;9.206;2022-12-05T23:08:53;5.90;74.10
9820;DHT22;4949;48.482;9.206;2022-12-05T23:13:54;5.60;74.30
9820;DHT22;4949;48.482;9.206;2022-12-05T23:18:57;5.70;73.90
9820;DHT22;4949;48.482;9.206;2022-12-05T23:24:04;5.60;74.50
9820;DHT22;4949;48.482;9.206;2022-12-05T23:29:09;5.50;74.90
9820;DHT22;4949;48.482;9.206;2022-12-05T23:34:13;5.60;74.60
9820;DHT22;4949;48.482;9.206;2022-12-05T23:39:14;5.60;74.00
9820;DHT22;4949;48.482;9.206;2022-12-05T23:44:15;5.60;74.00
9820;DHT22;4949;48.482;9.206;2022-12-05T23:49:16;5.60;74.60
9820;DHT22;4949;48.482;9.206;2022-12-05T23:54:18;5.50;74.00
9820;DHT22;4949;48.482;9.206;2022-12-05T23:59:23;5.50;73.00
